Queen Victoria — ZCEF3 — position and weather

sailwx.info

Track history (hours):
 
Tides and Currents Weather Stations Pressure Air Temp Water Temp Dewpoint Dewpoint Depression Visibility Wind Speed Wind Dir Waves Ship Positions

Queen Victoria

Last reported at 2019-Jul-22 05:01 UTC. Time now 2019-Jul-22 05:24 UTC.
Position N 59°57' E 030°11'.

Length 294 m; draft 8 m.

Type: Ship. MMSI: 310624000.

Date/timePositionNaut miles runAvg speedWind from/ knotsBaromVisibWave heightAir tempDewpointWater temp
2019-Jul-22 05:01N 59°57' E 030°11'0 0.0
2019-Jul-22 04:28N 59°57' E 030°11'0 0.0
2019-Jul-22 04:01N 59°57' E 030°11'0 0.2
2019-Jul-22 03:30N 59°57' E 030°11'1 1.2
2019-Jul-22 03:00N 59°57' E 030°10'4 8.5
2019-Jul-22 02:30N 59°56' E 030°02'5 9.7
2019-Jul-22 02:00N 59°57' E 029°53'4 8.7
2019-Jul-22 01:30N 59°59' E 029°45'5 9.1
2019-Jul-22 01:00N 60°00' E 029°37'510.5
2019-Jul-22 00:30N 60°01' E 029°26'611.7
2019-Jul-22 00:00N 60°02' E 029°14'612.2
2019-Jul-21 23:30N 60°02' E 029°02'714.7
2019-Jul-21 23:00N 60°02' E 028°48'715.0
2019-Jul-21 22:30N 60°02' E 028°33'714.2
2019-Jul-21 22:00N 60°05' E 028°20'714.5
2019-Jul-21 21:30N 60°09' E 028°07'714.9
2019-Jul-21 21:00N 60°10' E 027°52'713.9
2019-Jul-21 20:30N 60°08' E 027°39'714.8
2019-Jul-21 20:01N 60°05' E 027°26'2146.2
2019-Jul-21 20:00N 60°06' E 027°30'1020.3 140 / 101017.110.8 20.514.619.0
2019-Jul-21 19:30N 60°01' E 027°13'816.4
2019-Jul-21 19:00N 59°59' E 026°58'918.1
2019-Jul-21 18:30N 59°59' E 026°40'918.5
2019-Jul-21 18:00N 59°56' E 026°22'918.0
2019-Jul-21 17:30N 59°54' E 026°04'918.8
2019-Jul-21 17:00N 59°52' E 025°46'918.7
2019-Jul-21 16:30N 59°49' E 025°29'918.5
2019-Jul-21 16:00N 59°46' E 025°11'918.5
2019-Jul-21 15:30N 59°43' E 024°54'816.9
2019-Jul-21 15:00N 59°38' E 024°41'815.6
2019-Jul-21 14:30N 59°30' E 024°45'3 6.8
2019-Jul-21 14:00N 59°27' E 024°46'0 0.0
2019-Jul-21 13:30N 59°27' E 024°46'0 0.0
2019-Jul-21 13:00N 59°27' E 024°46'0 0.0
2019-Jul-21 12:30N 59°27' E 024°46'0 0.0
2019-Jul-21 12:00N 59°27' E 024°46'0 0.0
2019-Jul-21 11:30N 59°27' E 024°46'0 0.0
2019-Jul-21 11:00N 59°27' E 024°46'0 0.0
2019-Jul-21 10:30N 59°27' E 024°46'0 0.0
2019-Jul-21 10:00N 59°27' E 024°46'0 0.0
2019-Jul-21 09:30N 59°27' E 024°46'0 0.0
2019-Jul-21 09:00N 59°27' E 024°46'0 0.0
2019-Jul-21 08:30N 59°27' E 024°46'0 0.0
2019-Jul-21 08:00N 59°27' E 024°46'0 0.0
2019-Jul-21 07:30N 59°27' E 024°46'0 0.0
2019-Jul-21 07:00N 59°27' E 024°46'0 0.0
2019-Jul-21 06:30N 59°27' E 024°46'0 0.0
2019-Jul-21 06:00N 59°27' E 024°46'0 0.0
2019-Jul-21 05:30N 59°27' E 024°46'0 0.0
2019-Jul-21 05:01N 59°27' E 024°46'3 5.1
2019-Jul-21 04:31N 59°30' E 024°45'611.5
2019-Jul-21 04:00N 59°30' E 024°34'612.6
2019-Jul-21 03:30N 59°30' E 024°21'715.0
2019-Jul-21 03:00N 59°30' E 024°06'816.5
2019-Jul-21 02:30N 59°29' E 023°50'1019.5
2019-Jul-21 02:00N 59°28' E 023°31'1019.6
2019-Jul-21 01:30N 59°27' E 023°12'1019.6
2019-Jul-21 01:00N 59°26' E 022°53'1019.4
2019-Jul-21 00:30N 59°23' E 022°34'1019.6
2019-Jul-21 00:00N 59°18' E 022°18'1019.5
2019-Jul-20 23:30N 59°13' E 022°02'1019.5
2019-Jul-20 23:00N 59°07' E 021°47'1019.5
2019-Jul-20 22:30N 58°60' E 021°34'1019.5
2019-Jul-20 22:00N 58°54' E 021°18'1019.4
2019-Jul-20 21:30N 58°49' E 021°03'1019.3
2019-Jul-20 21:00N 58°42' E 020°49'2157.5
2019-Jul-20 21:00N 58°42' E 020°54'1224.0 090 / 51017.110.8 18.015.519.0
2019-Jul-20 20:30N 58°36' E 020°34'918.9
2019-Jul-20 20:00N 58°31' E 020°20'1019.4
2019-Jul-20 19:30N 58°25' E 020°05'1019.4
2019-Jul-20 19:00N 58°19' E 019°50'1019.1
2019-Jul-20 18:30N 58°13' E 019°36'1019.2
2019-Jul-20 18:00N 58°08' E 019°21'1019.3
2019-Jul-20 17:30N 58°04' E 019°04'1019.5
2019-Jul-20 17:00N 58°00' E 018°47'1019.2
2019-Jul-20 16:30N 57°56' E 018°31'918.7
2019-Jul-20 16:00N 57°48' E 018°21'919.0
2019-Jul-20 15:30N 57°39' E 018°15'2 0.9
2019-Jul-20 13:29N 57°38' E 018°16'0 0.0
2019-Jul-20 12:53N 57°38' E 018°16'0 0.0
2019-Jul-20 12:29N 57°38' E 018°16'0 0.0
2019-Jul-20 11:53N 57°38' E 018°16'0 0.0
2019-Jul-20 11:29N 57°38' E 018°16'0 0.0
2019-Jul-20 10:59N 57°38' E 018°16'0 0.0
2019-Jul-20 10:29N 57°38' E 018°16'0 0.0
2019-Jul-20 09:53N 57°38' E 018°16'0 0.0
2019-Jul-20 09:29N 57°38' E 018°16'0 0.0
2019-Jul-20 08:59N 57°38' E 018°16'0 0.0
2019-Jul-20 08:23N 57°38' E 018°16'0 0.0
2019-Jul-20 07:56N 57°38' E 018°16'0 0.0
2019-Jul-20 07:26N 57°38' E 018°16'0 0.0
2019-Jul-20 06:59N 57°38' E 018°16'0 0.0
2019-Jul-20 06:29N 57°38' E 018°16'0 0.0
2019-Jul-20 05:59N 57°38' E 018°16'0 0.6
2019-Jul-20 05:30N 57°38' E 018°16'4 8.4
2019-Jul-20 05:00N 57°38' E 018°08'510.9
2019-Jul-20 04:30N 57°35' E 017°59'713.5
2019-Jul-20 04:00N 57°30' E 017°51'713.4
2019-Jul-20 03:30N 57°24' E 017°46'713.6
2019-Jul-20 03:00N 57°17' E 017°42'713.5
2019-Jul-20 02:30N 57°11' E 017°39'713.7
2019-Jul-20 02:00N 57°04' E 017°35'713.6
2019-Jul-20 01:30N 56°58' E 017°31'713.5
2019-Jul-20 01:00N 56°51' E 017°28'713.6
2019-Jul-20 00:30N 56°45' E 017°24'612.9
2019-Jul-20 00:00N 56°38' E 017°23'713.7
2019-Jul-19 23:31N 56°33' E 017°30'713.6
2019-Jul-19 23:00N 56°27' E 017°38'612.1
2019-Jul-19 22:30N 56°22' E 017°33'815.2
2019-Jul-19 22:00N 56°19' E 017°20'714.1
2019-Jul-19 21:30N 56°16' E 017°09'714.0
2019-Jul-19 21:00N 56°11' E 016°59'714.0
2019-Jul-19 20:31N 56°06' E 016°52'612.5
2019-Jul-19 20:00N 56°02' E 016°43'713.2
2019-Jul-19 19:30N 55°58' E 016°33'714.0
2019-Jul-19 19:00N 55°54' E 016°23'714.0
2019-Jul-19 18:30N 55°50' E 016°13'714.0
2019-Jul-19 18:01N 55°46' E 016°03'713.8
2019-Jul-19 17:30N 55°43' E 015°52'713.9
2019-Jul-19 17:01N 55°40' E 015°41'713.8
2019-Jul-19 16:31N 55°38' E 015°29'713.9
2019-Jul-19 16:00N 55°35' E 015°18'713.9
2019-Jul-19 15:30N 55°33' E 015°06'612.8
2019-Jul-19 15:00N 55°30' E 014°56'713.1
2019-Jul-19 14:30N 55°27' E 014°46'713.9
2019-Jul-19 14:00N 55°22' E 014°37'713.3
2019-Jul-19 13:30N 55°17' E 014°30'612.9
2019-Jul-19 13:00N 55°12' E 014°23'714.6
2019-Jul-19 12:30N 55°06' E 014°15'815.6
2019-Jul-19 12:00N 55°01' E 014°05'815.4
2019-Jul-19 11:30N 54°58' E 013°52'815.2
2019-Jul-19 11:00N 54°56' E 013°40'815.1
2019-Jul-19 10:30N 54°54' E 013°27'611.6
2019-Jul-19 10:00N 54°52' E 013°18'713.1
2019-Jul-19 09:30N 54°50' E 013°07'714.8
2019-Jul-19 09:00N 54°48' E 012°54'714.7
2019-Jul-19 08:30N 54°46' E 012°42'815.0
2019-Jul-19 08:00N 54°41' E 012°31'715.1
2019-Jul-19 07:30N 54°37' E 012°21'714.5
2019-Jul-19 07:00N 54°31' E 012°14'714.8
2019-Jul-19 06:30N 54°25' E 012°08'714.8
2019-Jul-19 06:00N 54°25' E 011°55'163.3
2019-Jul-19 06:00N 54°24' E 011°54'713.7 170 / 161014.010.8 18.012.717.0
2019-Jul-19 05:30N 54°26' E 011°43'815.3
2019-Jul-19 05:00N 54°29' E 011°31'815.2
2019-Jul-19 04:30N 54°32' E 011°19'715.0
2019-Jul-19 04:00N 54°35' E 011°07'714.7
2019-Jul-19 03:30N 54°40' E 010°57'611.3
2019-Jul-19 03:00N 54°44' E 010°52'713.3
2019-Jul-19 02:30N 54°51' E 010°52'612.8
2019-Jul-19 02:00N 54°57' E 010°57'713.1
2019-Jul-19 01:30N 55°03' E 011°02'713.7
2019-Jul-19 01:00N 55°10' E 011°03'712.6
2019-Jul-19 00:28N 55°16' E 011°04'613.5
2019-Jul-19 00:00N 55°22' E 011°01'714.1
2019-Jul-18 23:30N 55°28' E 010°54'714.2
2019-Jul-18 23:00N 55°35' E 010°49'713.7
2019-Jul-18 22:28N 55°42' E 010°47'814.4
2019-Jul-18 21:55N 55°50' E 010°49'614.5
2019-Jul-18 21:30N 55°54' E 010°56'814.8
2019-Jul-18 20:57N 56°01' E 011°04'2713.3
2019-Jul-18 18:54N 56°09' E 011°51'815.4
2019-Jul-18 18:22N 56°12' E 012°04'615.0
2019-Jul-18 18:00N 56°12' E 012°14'815.5
2019-Jul-18 17:30N 56°09' E 012°27'816.9
2019-Jul-18 17:00N 56°04' E 012°39'714.1
2019-Jul-18 16:30N 55°57' E 012°39'713.8
2019-Jul-18 16:01N 55°50' E 012°42'714.1
2019-Jul-18 15:31N 55°43' E 012°39'2 3.6
2019-Jul-18 14:59N 55°42' E 012°36'0 0.0
2019-Jul-18 14:26N 55°42' E 012°36'0 0.0
2019-Jul-18 13:59N 55°42' E 012°36'0 0.0
2019-Jul-18 13:29N 55°42' E 012°36'0 0.0
2019-Jul-18 12:59N 55°42' E 012°36'0 0.0
2019-Jul-18 12:29N 55°42' E 012°36'0 0.0
2019-Jul-18 11:59N 55°42' E 012°36'0 0.0
2019-Jul-18 11:29N 55°42' E 012°36'0 0.0
2019-Jul-18 10:59N 55°42' E 012°36'0 0.0
2019-Jul-18 10:29N 55°42' E 012°36'0 0.0
2019-Jul-18 09:59N 55°42' E 012°36'0 0.0
2019-Jul-18 09:29N 55°42' E 012°36'0 0.0
2019-Jul-18 08:59N 55°42' E 012°36'0 0.0
2019-Jul-18 08:26N 55°42' E 012°36'0 0.0
2019-Jul-18 07:59N 55°42' E 012°36'0 0.0
2019-Jul-18 07:29N 55°42' E 012°36'0 0.0
2019-Jul-18 06:59N 55°42' E 012°36'0 0.0
2019-Jul-18 06:29N 55°42' E 012°36'0 0.3
2019-Jul-18 06:00N 55°42' E 012°36'018.6 1016.510.8 17.514.921.0
2019-Jul-18 05:59N 55°42' E 012°36'0 0.0
2019-Jul-18 05:26N 55°42' E 012°36'0 0.0
2019-Jul-18 04:59N 55°42' E 012°36'0 0.4
2019-Jul-18 04:30N 55°42' E 012°36'2 3.1
2019-Jul-18 04:00N 55°43' E 012°38'612.9
2019-Jul-18 03:31N 55°49' E 012°42'714.7
2019-Jul-18 03:01N 55°56' E 012°39'714.1
2019-Jul-18 02:31N 56°04' E 012°38'713.6
2019-Jul-18 02:00N 56°08' E 012°29'612.0
2019-Jul-18 01:30N 56°11' E 012°20'713.9
2019-Jul-18 00:59N 56°15' E 012°09'613.4
2019-Jul-18 00:31N 56°20' E 012°03'813.7
2019-Jul-17 23:57N 56°27' E 011°57'713.9
2019-Jul-17 23:27N 56°34' E 011°56'614.3
2019-Jul-17 23:00N 56°40' E 011°53'612.5
2019-Jul-17 22:30N 56°47' E 011°51'713.8
2019-Jul-17 22:01N 56°53' E 011°47'1014.1
2019-Jul-17 21:16N 57°03' E 011°41'414.0
2019-Jul-17 21:00N 57°00' E 011°36'7158.3 1013.210.8 17.014.418.0
2019-Jul-17 20:57N 57°07' E 011°37'614.6
2019-Jul-17 20:31N 57°13' E 011°33'714.5
2019-Jul-17 20:01N 57°20' E 011°29'714.6
2019-Jul-17 19:31N 57°27' E 011°24'714.3
2019-Jul-17 19:00N 57°32' E 011°15'714.5
2019-Jul-17 18:31N 57°37' E 011°04'714.5
2019-Jul-17 18:01N 57°42' E 010°55'714.8
2019-Jul-17 17:31N 57°47' E 010°45'714.6
2019-Jul-17 17:01N 57°48' E 010°31'714.9
2019-Jul-17 16:31N 57°47' E 010°17'714.9
2019-Jul-17 16:01N 57°45' E 010°04'815.0
2019-Jul-17 15:30N 57°44' E 009°50'715.0
2019-Jul-17 15:00N 57°43' E 009°36'815.4
2019-Jul-17 14:31N 57°39' E 009°23'815.9
2019-Jul-17 14:01N 57°36' E 009°10'815.6
2019-Jul-17 13:30N 57°32' E 008°57'815.5
2019-Jul-17 13:01N 57°29' E 008°44'815.5
2019-Jul-17 12:31N 57°25' E 008°32'815.3
2019-Jul-17 12:00N 57°20' E 008°21'815.1
2019-Jul-17 11:31N 57°15' E 008°10'815.0
2019-Jul-17 11:01N 57°09' E 008°02'815.2
2019-Jul-17 10:30N 57°02' E 007°55'815.5
2019-Jul-17 10:00N 56°56' E 007°48'815.6
2019-Jul-17 09:30N 56°48' E 007°43'815.1
2019-Jul-17 09:00N 56°41' E 007°38'715.0
2019-Jul-17 08:30N 56°34' E 007°34'815.0
2019-Jul-17 08:00N 56°27' E 007°29'715.0
2019-Jul-17 07:30N 56°20' E 007°25'815.2
2019-Jul-17 07:00N 56°13' E 007°19'715.4
2019-Jul-17 06:31N 56°06' E 007°14'815.4
2019-Jul-17 06:01N 55°59' E 007°09'5308.4
2019-Jul-17 06:00N 55°54' E 007°06'3 6.2 300 / 101018.510.8 14.010.216.0
2019-Jul-17 05:30N 55°51' E 007°04'1019.7
2019-Jul-17 05:00N 55°42' E 006°58'1019.7
2019-Jul-17 04:30N 55°33' E 006°51'1019.8
2019-Jul-17 04:00N 55°24' E 006°45'1019.2
2019-Jul-17 03:31N 55°14' E 006°42'1020.5
2019-Jul-17 03:00N 55°04' E 006°48'1320.0
2019-Jul-17 02:21N 54°52' E 006°56'920.0
2019-Jul-17 01:55N 54°44' E 007°02'920.0
2019-Jul-17 01:29N 54°36' E 007°08'1019.7
2019-Jul-17 00:57N 54°27' E 007°17'919.8
2019-Jul-17 00:30N 54°20' E 007°27'1019.6
2019-Jul-17 00:00N 54°13' E 007°38'1019.4
2019-Jul-16 23:30N 54°06' E 007°49'916.7
2019-Jul-16 22:59N 54°02' E 008°02'714.8
2019-Jul-16 22:30N 54°00' E 008°14'815.2
2019-Jul-16 22:00N 53°59' E 008°27'815.6
2019-Jul-16 21:30N 53°57' E 008°39'712.6
2019-Jul-16 20:59N 53°51' E 008°46'613.6
2019-Jul-16 20:30N 53°51' E 008°56'714.8
2019-Jul-16 20:00N 53°53' E 009°08'612.1
2019-Jul-16 19:30N 53°51' E 009°18'815.4
2019-Jul-16 19:00N 53°45' E 009°25'713.9
2019-Jul-16 18:30N 53°39' E 009°31'714.2
2019-Jul-16 18:00N 53°34' E 009°40'612.6
2019-Jul-16 17:30N 53°33' E 009°51'3 6.8
2019-Jul-16 17:00N 53°33' E 009°56'0 0.0
2019-Jul-16 16:30N 53°33' E 009°56'0 0.0
2019-Jul-16 16:00N 53°33' E 009°56'0 0.0
2019-Jul-16 15:30N 53°33' E 009°56'0 0.0
2019-Jul-16 15:00N 53°33' E 009°56'0 0.0
2019-Jul-16 14:30N 53°33' E 009°56'0 0.0
2019-Jul-16 14:00N 53°33' E 009°56'0 0.0
2019-Jul-16 13:30N 53°33' E 009°56'0 0.0
2019-Jul-16 13:00N 53°33' E 009°56'0 0.0
2019-Jul-16 12:30N 53°33' E 009°56'0 0.0
2019-Jul-16 12:00N 53°33' E 009°56'0 0.0
2019-Jul-16 11:30N 53°33' E 009°56'0 0.0
2019-Jul-16 11:00N 53°33' E 009°56'0 0.0
2019-Jul-16 10:30N 53°33' E 009°56'0 0.0
2019-Jul-16 10:00N 53°33' E 009°56'0 0.0
2019-Jul-16 09:30N 53°33' E 009°56'0 0.0
2019-Jul-16 09:00N 53°33' E 009°56'0 0.0
2019-Jul-16 08:30N 53°33' E 009°56'0 0.0
2019-Jul-16 08:00N 53°33' E 009°56'0 0.0
2019-Jul-16 07:30N 53°33' E 009°56'0 0.0
2019-Jul-16 07:00N 53°33' E 009°56'0 0.0
2019-Jul-16 06:30N 53°33' E 009°56'0 0.0
2019-Jul-16 06:00N 53°33' E 009°56'0 0.0
2019-Jul-16 05:30N 53°33' E 009°56'0 0.0
2019-Jul-16 05:00N 53°33' E 009°56'0 0.0
2019-Jul-16 04:30N 53°33' E 009°56'0 0.0
2019-Jul-16 04:00N 53°33' E 009°56'0 0.8
2019-Jul-16 03:31N 53°33' E 009°57'2 4.8
2019-Jul-16 03:00N 53°33' E 009°53'4 7.6
2019-Jul-16 02:30N 53°34' E 009°47'611.2
2019-Jul-16 02:00N 53°35' E 009°38'611.6
2019-Jul-16 01:30N 53°39' E 009°31'713.2
2019-Jul-16 01:00N 53°45' E 009°25'714.6
2019-Jul-16 00:30N 53°51' E 009°19'713.6
2019-Jul-16 00:00N 53°53' E 009°08'510.4
2019-Jul-15 23:29N 53°51' E 008°59'811.8
2019-Jul-15 22:51N 53°51' E 008°46'4412.7
2019-Jul-15 19:25N 53°54' E 007°32'615.0
2019-Jul-15 19:01N 53°53' E 007°22'917.8
2019-Jul-15 18:31N 53°51' E 007°08'1019.8
2019-Jul-15 18:01N 53°48' E 006°51'1019.6
2019-Jul-15 17:30N 53°47' E 006°35'3619.2
2019-Jul-15 15:37N 53°36' E 005°36'515.6
2019-Jul-15 15:19N 53°35' E 005°29'1114.4
2019-Jul-15 14:35N 53°31' E 005°12'114.2
2019-Jul-15 14:30N 53°31' E 005°10'714.4
2019-Jul-15 14:01N 53°28' E 004°59'814.2
2019-Jul-15 13:25N 53°25' E 004°46'2713.4
2019-Jul-15 11:25N 53°02' E 004°23'1113.5
2019-Jul-15 10:35N 52°52' E 004°14'213.8
2019-Jul-15 10:26N 52°50' E 004°13'1113.7
2019-Jul-15 09:39N 52°42' E 004°01'313.7
2019-Jul-15 09:26N 52°40' E 003°58'613.6
2019-Jul-15 09:00N 52°36' E 003°51'2106.9
2019-Jul-15 09:00N 52°36' E 003°54'816.8 340 / 171020.910.8 15.0 9.217.0
2019-Jul-15 08:30N 52°31' E 003°44'713.2
2019-Jul-15 07:59N 52°26' E 003°36'613.2
2019-Jul-15 07:30N 52°21' E 003°28'613.1
2019-Jul-15 07:00N 52°17' E 003°21'713.1
2019-Jul-15 06:30N 52°12' E 003°13'713.6
2019-Jul-15 06:00N 52°07' E 003°05'713.8
2019-Jul-15 05:29N 52°02' E 002°57'713.8
2019-Jul-15 04:59N 51°57' E 002°51'814.4
2019-Jul-15 04:27N 51°51' E 002°43'714.6
2019-Jul-15 03:59N 51°45' E 002°36'714.8
2019-Jul-15 03:30N 51°40' E 002°28'714.9
2019-Jul-15 03:00N 51°34' E 002°21'815.2
2019-Jul-15 02:30N 51°29' E 002°13'714.7
2019-Jul-15 02:01N 51°22' E 002°08'917.7
2019-Jul-15 01:30N 51°13' E 002°06'1019.7
2019-Jul-15 01:01N 51°09' E 001°52'1019.7
2019-Jul-15 00:30N 51°03' E 001°40'1020.7
2019-Jul-15 00:00N 50°54' E 001°29'1020.5
2019-Jul-14 23:31N 50°45' E 001°25'1019.5
2019-Jul-14 22:59N 50°38' E 001°13'1319.0
2019-Jul-14 22:19N 50°32' E 000°55'1019.1
2019-Jul-14 21:47N 50°29' E 000°40'1819.4
2019-Jul-14 20:51N 50°23' E 000°13'53106.1
2019-Jul-14 20:21N 50°44' W 001°04'41119.5
2019-Jul-14 20:00N 50°24' W 000°09'1020.2
2019-Jul-14 19:30N 50°28' W 000°24'1020.7
2019-Jul-14 19:00N 50°32' W 000°38'1020.4
2019-Jul-14 18:31N 50°38' W 000°51'713.6
2019-Jul-14 18:00N 50°43' W 000°59'918.7
2019-Jul-14 17:30N 50°46' W 001°13'5 9.9
2019-Jul-14 17:00N 50°49' W 001°18'5 9.9
2019-Jul-14 16:31N 50°53' W 001°24'2 4.3
2019-Jul-14 16:00N 50°54' W 001°26'0 0.4
2019-Jul-14 15:30N 50°54' W 001°26'0 0.0
2019-Jul-14 15:00N 50°54' W 001°26'0 0.0
2019-Jul-14 14:30N 50°54' W 001°26'0 0.0
2019-Jul-14 13:54N 50°54' W 001°26'0 0.0
2019-Jul-14 13:27N 50°54' W 001°26'0 0.0
2019-Jul-14 12:57N 50°54' W 001°26'0 0.0
2019-Jul-14 12:21N 50°54' W 001°26'0 0.0
2019-Jul-14 11:54N 50°54' W 001°26'0 0.0
2019-Jul-14 11:30N 50°54' W 001°26'0 0.0
2019-Jul-14 11:00N 50°54' W 001°26'0 0.0
2019-Jul-14 10:30N 50°54' W 001°26'0 0.0
2019-Jul-14 09:54N 50°54' W 001°26'0 0.0
2019-Jul-14 09:27N 50°54' W 001°26'0 0.0
2019-Jul-14 08:54N 50°54' W 001°26'0 0.0
2019-Jul-14 08:27N 50°54' W 001°26'0 0.0
2019-Jul-14 07:54N 50°54' W 001°26'0 0.0
2019-Jul-14 07:09N 50°54' W 001°26'0 0.0
2019-Jul-14 07:00N 50°54' W 001°26'0 0.0
2019-Jul-14 06:27N 50°54' W 001°26'0 0.0
2019-Jul-14 05:54N 50°54' W 001°26'0 0.0
2019-Jul-14 05:27N 50°54' W 001°26'0 0.2
2019-Jul-14 05:00N 50°54' W 001°26'3 6.3
2019-Jul-14 04:31N 50°52' W 001°22'4 8.6
2019-Jul-14 04:00N 50°49' W 001°18'4 7.9
2019-Jul-14 03:31N 50°46' W 001°14'714.4
2019-Jul-14 03:00N 50°44' W 001°03'611.3
2019-Jul-14 02:30N 50°39' W 000°58'511.0
2019-Jul-14 02:00N 50°33' W 000°59'612.2
2019-Jul-14 01:30N 50°30' W 001°07'612.8
2019-Jul-14 01:00N 50°28' W 001°17'612.2
2019-Jul-14 00:30N 50°26' W 001°26'1811.3
2019-Jul-13 22:56N 50°20' W 001°52'510.7
2019-Jul-13 22:26N 50°19' W 002°00'910.7
2019-Jul-13 21:35N 50°17' W 002°14'311.5
2019-Jul-13 21:22N 50°17' W 002°18'511.9
2019-Jul-13 20:58N 50°16' W 002°26'812.4
2019-Jul-13 20:19N 50°14' W 002°38'412.7
2019-Jul-13 20:00N 50°14' W 002°44'613.0
2019-Jul-13 19:30N 50°12' W 002°54'612.9
2019-Jul-13 19:00N 50°09' W 003°03'612.9
2019-Jul-13 18:30N 50°05' W 003°11'612.9
2019-Jul-13 18:00N 50°01' W 003°19'713.1
2019-Jul-13 17:30N 49°58' W 003°27'713.3
2019-Jul-13 17:00N 49°57' W 003°37'713.9
2019-Jul-13 16:30N 49°56' W 003°48'713.8
2019-Jul-13 16:00N 49°55' W 003°59'713.9
2019-Jul-13 15:30N 49°54' W 004°09'713.9
2019-Jul-13 15:00N 49°53' W 004°20'713.8
2019-Jul-13 14:30N 49°52' W 004°31'713.7
2019-Jul-13 13:59N 49°51' W 004°42'1713.1
2019-Jul-13 12:42N 49°48' W 005°08'313.2
2019-Jul-13 12:28N 49°48' W 005°12'9910.7
2019-Jul-13 03:15N 51°21' W 006°02'413.6
2019-Jul-13 02:59N 51°25' W 006°01'3914.2
2019-Jul-13 00:13N 52°03' W 005°45'515.8
2019-Jul-12 23:56N 52°07' W 005°42'715.8
2019-Jul-12 23:30N 52°14' W 005°38'816.0
2019-Jul-12 23:00N 52°21' W 005°33'2415.7
2019-Jul-12 21:29N 52°43' W 005°19'1015.0
2019-Jul-12 20:50N 52°53' W 005°15'614.3
2019-Jul-12 20:26N 52°59' W 005°14'1513.3
2019-Jul-12 19:19N 53°13' W 005°13'5813.0
2019-Jul-12 14:52N 54°11' W 005°12'514.9
2019-Jul-12 14:30N 54°16' W 005°12'815.1
2019-Jul-12 14:01N 54°24' W 005°12'714.8
2019-Jul-12 13:30N 54°31' W 005°14'714.8
2019-Jul-12 13:00N 54°39' W 005°17'713.2
2019-Jul-12 12:30N 54°45' W 005°21'612.7
2019-Jul-12 12:00N 54°50' W 005°26'1313.1
2019-Jul-12 11:00N 55°00' W 005°42'2411.2 300 / 181017.0 2.2 14.013.113.0
2019-Jul-12 08:51N 55°20' W 006°05'412.7
2019-Jul-12 08:30N 55°22' W 006°12'612.6
2019-Jul-12 08:00N 55°24' W 006°23'713.4
2019-Jul-12 07:31N 55°29' W 006°31'714.2
2019-Jul-12 07:00N 55°34' W 006°39'714.5
2019-Jul-12 06:30N 55°40' W 006°48'714.9
2019-Jul-12 06:00N 55°45' W 006°55'714.9
2019-Jul-12 05:30N 55°51' W 007°04'  
Track history (hours):
 
Tides and Currents Weather Stations Pressure Air Temp Water Temp Dewpoint Dewpoint Depression Visibility Wind Speed Wind Dir Waves Ship Positions

Queen Victoria

Last reported at 2019-Jul-22 05:01 UTC. Time now 2019-Jul-22 05:24 UTC.
Position N 59°57' E 030°11'.

Length 294 m; draft 8 m.

Type: Ship. MMSI: 310624000.

Date/timePositionNaut miles runAvg speedWind from/ knotsBaromVisibWave heightAir tempDewpointWater temp
2019-Jul-22 05:01N 59°57' E 030°11'0 0.0
2019-Jul-22 04:28N 59°57' E 030°11'0 0.0
2019-Jul-22 04:01N 59°57' E 030°11'0 0.2
2019-Jul-22 03:30N 59°57' E 030°11'1 1.2
2019-Jul-22 03:00N 59°57' E 030°10'4 8.5
2019-Jul-22 02:30N 59°56' E 030°02'5 9.7
2019-Jul-22 02:00N 59°57' E 029°53'4 8.7
2019-Jul-22 01:30N 59°59' E 029°45'5 9.1
2019-Jul-22 01:00N 60°00' E 029°37'510.5
2019-Jul-22 00:30N 60°01' E 029°26'611.7
2019-Jul-22 00:00N 60°02' E 029°14'612.2
2019-Jul-21 23:30N 60°02' E 029°02'714.7
2019-Jul-21 23:00N 60°02' E 028°48'715.0
2019-Jul-21 22:30N 60°02' E 028°33'714.2
2019-Jul-21 22:00N 60°05' E 028°20'714.5
2019-Jul-21 21:30N 60°09' E 028°07'714.9
2019-Jul-21 21:00N 60°10' E 027°52'713.9
2019-Jul-21 20:30N 60°08' E 027°39'714.8
2019-Jul-21 20:01N 60°05' E 027°26'2146.2
2019-Jul-21 20:00N 60°06' E 027°30'1020.3 140 / 101017.110.8 20.514.619.0
2019-Jul-21 19:30N 60°01' E 027°13'816.4
2019-Jul-21 19:00N 59°59' E 026°58'918.1
2019-Jul-21 18:30N 59°59' E 026°40'918.5
2019-Jul-21 18:00N 59°56' E 026°22'918.0
2019-Jul-21 17:30N 59°54' E 026°04'918.8
2019-Jul-21 17:00N 59°52' E 025°46'918.7
2019-Jul-21 16:30N 59°49' E 025°29'918.5
2019-Jul-21 16:00N 59°46' E 025°11'918.5
2019-Jul-21 15:30N 59°43' E 024°54'816.9
2019-Jul-21 15:00N 59°38' E 024°41'815.6
2019-Jul-21 14:30N 59°30' E 024°45'3 6.8
2019-Jul-21 14:00N 59°27' E 024°46'0 0.0
2019-Jul-21 13:30N 59°27' E 024°46'0 0.0
2019-Jul-21 13:00N 59°27' E 024°46'0 0.0
2019-Jul-21 12:30N 59°27' E 024°46'0 0.0
2019-Jul-21 12:00N 59°27' E 024°46'0 0.0
2019-Jul-21 11:30N 59°27' E 024°46'0 0.0
2019-Jul-21 11:00N 59°27' E 024°46'0 0.0
2019-Jul-21 10:30N 59°27' E 024°46'0 0.0
2019-Jul-21 10:00N 59°27' E 024°46'0 0.0
2019-Jul-21 09:30N 59°27' E 024°46'0 0.0
2019-Jul-21 09:00N 59°27' E 024°46'0 0.0
2019-Jul-21 08:30N 59°27' E 024°46'0 0.0
2019-Jul-21 08:00N 59°27' E 024°46'0 0.0
2019-Jul-21 07:30N 59°27' E 024°46'0 0.0
2019-Jul-21 07:00N 59°27' E 024°46'0 0.0
2019-Jul-21 06:30N 59°27' E 024°46'0 0.0
2019-Jul-21 06:00N 59°27' E 024°46'0 0.0
2019-Jul-21 05:30N 59°27' E 024°46'0 0.0
2019-Jul-21 05:01N 59°27' E 024°46'3 5.1
2019-Jul-21 04:31N 59°30' E 024°45'611.5
2019-Jul-21 04:00N 59°30' E 024°34'612.6
2019-Jul-21 03:30N 59°30' E 024°21'715.0
2019-Jul-21 03:00N 59°30' E 024°06'816.5
2019-Jul-21 02:30N 59°29' E 023°50'1019.5
2019-Jul-21 02:00N 59°28' E 023°31'1019.6
2019-Jul-21 01:30N 59°27' E 023°12'1019.6
2019-Jul-21 01:00N 59°26' E 022°53'1019.4
2019-Jul-21 00:30N 59°23' E 022°34'1019.6
2019-Jul-21 00:00N 59°18' E 022°18'1019.5
2019-Jul-20 23:30N 59°13' E 022°02'1019.5
2019-Jul-20 23:00N 59°07' E 021°47'1019.5
2019-Jul-20 22:30N 58°60' E 021°34'1019.5
2019-Jul-20 22:00N 58°54' E 021°18'1019.4
2019-Jul-20 21:30N 58°49' E 021°03'1019.3
2019-Jul-20 21:00N 58°42' E 020°49'2157.5
2019-Jul-20 21:00N 58°42' E 020°54'1224.0 090 / 51017.110.8 18.015.519.0
2019-Jul-20 20:30N 58°36' E 020°34'918.9
2019-Jul-20 20:00N 58°31' E 020°20'1019.4
2019-Jul-20 19:30N 58°25' E 020°05'1019.4
2019-Jul-20 19:00N 58°19' E 019°50'1019.1
2019-Jul-20 18:30N 58°13' E 019°36'1019.2
2019-Jul-20 18:00N 58°08' E 019°21'1019.3
2019-Jul-20 17:30N 58°04' E 019°04'1019.5
2019-Jul-20 17:00N 58°00' E 018°47'1019.2
2019-Jul-20 16:30N 57°56' E 018°31'918.7
2019-Jul-20 16:00N 57°48' E 018°21'919.0
2019-Jul-20 15:30N 57°39' E 018°15'2 0.9
2019-Jul-20 13:29N 57°38' E 018°16'0 0.0
2019-Jul-20 12:53N 57°38' E 018°16'0 0.0
2019-Jul-20 12:29N 57°38' E 018°16'0 0.0
2019-Jul-20 11:53N 57°38' E 018°16'0 0.0
2019-Jul-20 11:29N 57°38' E 018°16'0 0.0
2019-Jul-20 10:59N 57°38' E 018°16'0 0.0
2019-Jul-20 10:29N 57°38' E 018°16'0 0.0
2019-Jul-20 09:53N 57°38' E 018°16'0 0.0
2019-Jul-20 09:29N 57°38' E 018°16'0 0.0
2019-Jul-20 08:59N 57°38' E 018°16'0 0.0
2019-Jul-20 08:23N 57°38' E 018°16'0 0.0
2019-Jul-20 07:56N 57°38' E 018°16'0 0.0
2019-Jul-20 07:26N 57°38' E 018°16'0 0.0
2019-Jul-20 06:59N 57°38' E 018°16'0 0.0
2019-Jul-20 06:29N 57°38' E 018°16'0 0.0
2019-Jul-20 05:59N 57°38' E 018°16'0 0.6
2019-Jul-20 05:30N 57°38' E 018°16'4 8.4
2019-Jul-20 05:00N 57°38' E 018°08'510.9
2019-Jul-20 04:30N 57°35' E 017°59'713.5
2019-Jul-20 04:00N 57°30' E 017°51'713.4
2019-Jul-20 03:30N 57°24' E 017°46'713.6
2019-Jul-20 03:00N 57°17' E 017°42'713.5
2019-Jul-20 02:30N 57°11' E 017°39'713.7
2019-Jul-20 02:00N 57°04' E 017°35'713.6
2019-Jul-20 01:30N 56°58' E 017°31'713.5
2019-Jul-20 01:00N 56°51' E 017°28'713.6
2019-Jul-20 00:30N 56°45' E 017°24'612.9
2019-Jul-20 00:00N 56°38' E 017°23'713.7
2019-Jul-19 23:31N 56°33' E 017°30'713.6
2019-Jul-19 23:00N 56°27' E 017°38'612.1
2019-Jul-19 22:30N 56°22' E 017°33'815.2
2019-Jul-19 22:00N 56°19' E 017°20'714.1
2019-Jul-19 21:30N 56°16' E 017°09'714.0
2019-Jul-19 21:00N 56°11' E 016°59'714.0
2019-Jul-19 20:31N 56°06' E 016°52'612.5
2019-Jul-19 20:00N 56°02' E 016°43'713.2
2019-Jul-19 19:30N 55°58' E 016°33'714.0
2019-Jul-19 19:00N 55°54' E 016°23'714.0
2019-Jul-19 18:30N 55°50' E 016°13'714.0
2019-Jul-19 18:01N 55°46' E 016°03'713.8
2019-Jul-19 17:30N 55°43' E 015°52'713.9
2019-Jul-19 17:01N 55°40' E 015°41'713.8
2019-Jul-19 16:31N 55°38' E 015°29'713.9
2019-Jul-19 16:00N 55°35' E 015°18'713.9
2019-Jul-19 15:30N 55°33' E 015°06'612.8
2019-Jul-19 15:00N 55°30' E 014°56'713.1
2019-Jul-19 14:30N 55°27' E 014°46'713.9
2019-Jul-19 14:00N 55°22' E 014°37'713.3
2019-Jul-19 13:30N 55°17' E 014°30'612.9
2019-Jul-19 13:00N 55°12' E 014°23'714.6
2019-Jul-19 12:30N 55°06' E 014°15'815.6
2019-Jul-19 12:00N 55°01' E 014°05'815.4
2019-Jul-19 11:30N 54°58' E 013°52'815.2
2019-Jul-19 11:00N 54°56' E 013°40'815.1
2019-Jul-19 10:30N 54°54' E 013°27'611.6
2019-Jul-19 10:00N 54°52' E 013°18'713.1
2019-Jul-19 09:30N 54°50' E 013°07'714.8
2019-Jul-19 09:00N 54°48' E 012°54'714.7
2019-Jul-19 08:30N 54°46' E 012°42'815.0
2019-Jul-19 08:00N 54°41' E 012°31'715.1
2019-Jul-19 07:30N 54°37' E 012°21'714.5
2019-Jul-19 07:00N 54°31' E 012°14'714.8
2019-Jul-19 06:30N 54°25' E 012°08'714.8
2019-Jul-19 06:00N 54°25' E 011°55'163.3
2019-Jul-19 06:00N 54°24' E 011°54'713.7 170 / 161014.010.8 18.012.717.0
2019-Jul-19 05:30N 54°26' E 011°43'815.3
2019-Jul-19 05:00N 54°29' E 011°31'815.2
2019-Jul-19 04:30N 54°32' E 011°19'715.0
2019-Jul-19 04:00N 54°35' E 011°07'714.7
2019-Jul-19 03:30N 54°40' E 010°57'611.3
2019-Jul-19 03:00N 54°44' E 010°52'713.3
2019-Jul-19 02:30N 54°51' E 010°52'612.8
2019-Jul-19 02:00N 54°57' E 010°57'713.1
2019-Jul-19 01:30N 55°03' E 011°02'713.7
2019-Jul-19 01:00N 55°10' E 011°03'712.6
2019-Jul-19 00:28N 55°16' E 011°04'613.5
2019-Jul-19 00:00N 55°22' E 011°01'714.1
2019-Jul-18 23:30N 55°28' E 010°54'714.2
2019-Jul-18 23:00N 55°35' E 010°49'713.7
2019-Jul-18 22:28N 55°42' E 010°47'814.4
2019-Jul-18 21:55N 55°50' E 010°49'614.5
2019-Jul-18 21:30N 55°54' E 010°56'814.8
2019-Jul-18 20:57N 56°01' E 011°04'2713.3
2019-Jul-18 18:54N 56°09' E 011°51'815.4
2019-Jul-18 18:22N 56°12' E 012°04'615.0
2019-Jul-18 18:00N 56°12' E 012°14'815.5
2019-Jul-18 17:30N 56°09' E 012°27'816.9
2019-Jul-18 17:00N 56°04' E 012°39'714.1
2019-Jul-18 16:30N 55°57' E 012°39'713.8
2019-Jul-18 16:01N 55°50' E 012°42'714.1
2019-Jul-18 15:31N 55°43' E 012°39'2 3.6
2019-Jul-18 14:59N 55°42' E 012°36'0 0.0
2019-Jul-18 14:26N 55°42' E 012°36'0 0.0
2019-Jul-18 13:59N 55°42' E 012°36'0 0.0
2019-Jul-18 13:29N 55°42' E 012°36'0 0.0
2019-Jul-18 12:59N 55°42' E 012°36'0 0.0
2019-Jul-18 12:29N 55°42' E 012°36'0 0.0
2019-Jul-18 11:59N 55°42' E 012°36'0 0.0
2019-Jul-18 11:29N 55°42' E 012°36'0 0.0
2019-Jul-18 10:59N 55°42' E 012°36'0 0.0
2019-Jul-18 10:29N 55°42' E 012°36'0 0.0
2019-Jul-18 09:59N 55°42' E 012°36'0 0.0
2019-Jul-18 09:29N 55°42' E 012°36'0 0.0
2019-Jul-18 08:59N 55°42' E 012°36'0 0.0
2019-Jul-18 08:26N 55°42' E 012°36'0 0.0
2019-Jul-18 07:59N 55°42' E 012°36'0 0.0
2019-Jul-18 07:29N 55°42' E 012°36'0 0.0
2019-Jul-18 06:59N 55°42' E 012°36'0 0.0
2019-Jul-18 06:29N 55°42' E 012°36'0 0.3
2019-Jul-18 06:00N 55°42' E 012°36'018.6 1016.510.8 17.514.921.0
2019-Jul-18 05:59N 55°42' E 012°36'0 0.0
2019-Jul-18 05:26N 55°42' E 012°36'0 0.0
2019-Jul-18 04:59N 55°42' E 012°36'0 0.4
2019-Jul-18 04:30N 55°42' E 012°36'2 3.1
2019-Jul-18 04:00N 55°43' E 012°38'612.9
2019-Jul-18 03:31N 55°49' E 012°42'714.7
2019-Jul-18 03:01N 55°56' E 012°39'714.1
2019-Jul-18 02:31N 56°04' E 012°38'713.6
2019-Jul-18 02:00N 56°08' E 012°29'612.0
2019-Jul-18 01:30N 56°11' E 012°20'713.9
2019-Jul-18 00:59N 56°15' E 012°09'613.4
2019-Jul-18 00:31N 56°20' E 012°03'813.7
2019-Jul-17 23:57N 56°27' E 011°57'713.9
2019-Jul-17 23:27N 56°34' E 011°56'614.3
2019-Jul-17 23:00N 56°40' E 011°53'612.5
2019-Jul-17 22:30N 56°47' E 011°51'713.8
2019-Jul-17 22:01N 56°53' E 011°47'1014.1
2019-Jul-17 21:16N 57°03' E 011°41'414.0
2019-Jul-17 21:00N 57°00' E 011°36'7158.3 1013.210.8 17.014.418.0
2019-Jul-17 20:57N 57°07' E 011°37'614.6
2019-Jul-17 20:31N 57°13' E 011°33'714.5
2019-Jul-17 20:01N 57°20' E 011°29'714.6
2019-Jul-17 19:31N 57°27' E 011°24'714.3
2019-Jul-17 19:00N 57°32' E 011°15'714.5
2019-Jul-17 18:31N 57°37' E 011°04'714.5
2019-Jul-17 18:01N 57°42' E 010°55'714.8
2019-Jul-17 17:31N 57°47' E 010°45'714.6
2019-Jul-17 17:01N 57°48' E 010°31'714.9
2019-Jul-17 16:31N 57°47' E 010°17'714.9
2019-Jul-17 16:01N 57°45' E 010°04'815.0
2019-Jul-17 15:30N 57°44' E 009°50'715.0
2019-Jul-17 15:00N 57°43' E 009°36'815.4
2019-Jul-17 14:31N 57°39' E 009°23'815.9
2019-Jul-17 14:01N 57°36' E 009°10'815.6
2019-Jul-17 13:30N 57°32' E 008°57'815.5
2019-Jul-17 13:01N 57°29' E 008°44'815.5
2019-Jul-17 12:31N 57°25' E 008°32'815.3
2019-Jul-17 12:00N 57°20' E 008°21'815.1
2019-Jul-17 11:31N 57°15' E 008°10'815.0
2019-Jul-17 11:01N 57°09' E 008°02'815.2
2019-Jul-17 10:30N 57°02' E 007°55'815.5
2019-Jul-17 10:00N 56°56' E 007°48'815.6
2019-Jul-17 09:30N 56°48' E 007°43'815.1
2019-Jul-17 09:00N 56°41' E 007°38'715.0
2019-Jul-17 08:30N 56°34' E 007°34'815.0
2019-Jul-17 08:00N 56°27' E 007°29'715.0
2019-Jul-17 07:30N 56°20' E 007°25'815.2
2019-Jul-17 07:00N 56°13' E 007°19'715.4
2019-Jul-17 06:31N 56°06' E 007°14'815.4
2019-Jul-17 06:01N 55°59' E 007°09'5308.4
2019-Jul-17 06:00N 55°54' E 007°06'3 6.2 300 / 101018.510.8 14.010.216.0
2019-Jul-17 05:30N 55°51' E 007°04'1019.7
2019-Jul-17 05:00N 55°42' E 006°58'1019.7
2019-Jul-17 04:30N 55°33' E 006°51'1019.8
2019-Jul-17 04:00N 55°24' E 006°45'1019.2
2019-Jul-17 03:31N 55°14' E 006°42'1020.5
2019-Jul-17 03:00N 55°04' E 006°48'1320.0
2019-Jul-17 02:21N 54°52' E 006°56'920.0
2019-Jul-17 01:55N 54°44' E 007°02'920.0
2019-Jul-17 01:29N 54°36' E 007°08'1019.7
2019-Jul-17 00:57N 54°27' E 007°17'919.8
2019-Jul-17 00:30N 54°20' E 007°27'1019.6
2019-Jul-17 00:00N 54°13' E 007°38'1019.4
2019-Jul-16 23:30N 54°06' E 007°49'916.7
2019-Jul-16 22:59N 54°02' E 008°02'714.8
2019-Jul-16 22:30N 54°00' E 008°14'815.2
2019-Jul-16 22:00N 53°59' E 008°27'815.6
2019-Jul-16 21:30N 53°57' E 008°39'712.6
2019-Jul-16 20:59N 53°51' E 008°46'613.6
2019-Jul-16 20:30N 53°51' E 008°56'714.8
2019-Jul-16 20:00N 53°53' E 009°08'612.1
2019-Jul-16 19:30N 53°51' E 009°18'815.4
2019-Jul-16 19:00N 53°45' E 009°25'713.9
2019-Jul-16 18:30N 53°39' E 009°31'714.2
2019-Jul-16 18:00N 53°34' E 009°40'612.6
2019-Jul-16 17:30N 53°33' E 009°51'3 6.8
2019-Jul-16 17:00N 53°33' E 009°56'0 0.0
2019-Jul-16 16:30N 53°33' E 009°56'0 0.0
2019-Jul-16 16:00N 53°33' E 009°56'0 0.0
2019-Jul-16 15:30N 53°33' E 009°56'0 0.0
2019-Jul-16 15:00N 53°33' E 009°56'0 0.0
2019-Jul-16 14:30N 53°33' E 009°56'0 0.0
2019-Jul-16 14:00N 53°33' E 009°56'0 0.0
2019-Jul-16 13:30N 53°33' E 009°56'0 0.0
2019-Jul-16 13:00N 53°33' E 009°56'0 0.0
2019-Jul-16 12:30N 53°33' E 009°56'0 0.0
2019-Jul-16 12:00N 53°33' E 009°56'0 0.0
2019-Jul-16 11:30N 53°33' E 009°56'0 0.0
2019-Jul-16 11:00N 53°33' E 009°56'0 0.0
2019-Jul-16 10:30N 53°33' E 009°56'0 0.0
2019-Jul-16 10:00N 53°33' E 009°56'0 0.0
2019-Jul-16 09:30N 53°33' E 009°56'0 0.0
2019-Jul-16 09:00N 53°33' E 009°56'0 0.0
2019-Jul-16 08:30N 53°33' E 009°56'0 0.0
2019-Jul-16 08:00N 53°33' E 009°56'0 0.0
2019-Jul-16 07:30N 53°33' E 009°56'0 0.0
2019-Jul-16 07:00N 53°33' E 009°56'0 0.0
2019-Jul-16 06:30N 53°33' E 009°56'0 0.0
2019-Jul-16 06:00N 53°33' E 009°56'0 0.0
2019-Jul-16 05:30N 53°33' E 009°56'0 0.0
2019-Jul-16 05:00N 53°33' E 009°56'0 0.0
2019-Jul-16 04:30N 53°33' E 009°56'0 0.0
2019-Jul-16 04:00N 53°33' E 009°56'0 0.8
2019-Jul-16 03:31N 53°33' E 009°57'2 4.8
2019-Jul-16 03:00N 53°33' E 009°53'4 7.6
2019-Jul-16 02:30N 53°34' E 009°47'611.2
2019-Jul-16 02:00N 53°35' E 009°38'611.6
2019-Jul-16 01:30N 53°39' E 009°31'713.2
2019-Jul-16 01:00N 53°45' E 009°25'714.6
2019-Jul-16 00:30N 53°51' E 009°19'713.6
2019-Jul-16 00:00N 53°53' E 009°08'510.4
2019-Jul-15 23:29N 53°51' E 008°59'811.8
2019-Jul-15 22:51N 53°51' E 008°46'4412.7
2019-Jul-15 19:25N 53°54' E 007°32'615.0
2019-Jul-15 19:01N 53°53' E 007°22'917.8
2019-Jul-15 18:31N 53°51' E 007°08'1019.8
2019-Jul-15 18:01N 53°48' E 006°51'1019.6
2019-Jul-15 17:30N 53°47' E 006°35'3619.2
2019-Jul-15 15:37N 53°36' E 005°36'515.6
2019-Jul-15 15:19N 53°35' E 005°29'1114.4
2019-Jul-15 14:35N 53°31' E 005°12'114.2
2019-Jul-15 14:30N 53°31' E 005°10'714.4
2019-Jul-15 14:01N 53°28' E 004°59'814.2
2019-Jul-15 13:25N 53°25' E 004°46'2713.4
2019-Jul-15 11:25N 53°02' E 004°23'1113.5
2019-Jul-15 10:35N 52°52' E 004°14'213.8
2019-Jul-15 10:26N 52°50' E 004°13'1113.7
2019-Jul-15 09:39N 52°42' E 004°01'313.7
2019-Jul-15 09:26N 52°40' E 003°58'613.6
2019-Jul-15 09:00N 52°36' E 003°51'2106.9
2019-Jul-15 09:00N 52°36' E 003°54'816.8 340 / 171020.910.8 15.0 9.217.0
2019-Jul-15 08:30N 52°31' E 003°44'713.2
2019-Jul-15 07:59N 52°26' E 003°36'613.2
2019-Jul-15 07:30N 52°21' E 003°28'613.1
2019-Jul-15 07:00N 52°17' E 003°21'713.1
2019-Jul-15 06:30N 52°12' E 003°13'713.6
2019-Jul-15 06:00N 52°07' E 003°05'713.8
2019-Jul-15 05:29N 52°02' E 002°57'713.8
2019-Jul-15 04:59N 51°57' E 002°51'814.4
2019-Jul-15 04:27N 51°51' E 002°43'714.6
2019-Jul-15 03:59N 51°45' E 002°36'714.8
2019-Jul-15 03:30N 51°40' E 002°28'714.9
2019-Jul-15 03:00N 51°34' E 002°21'815.2
2019-Jul-15 02:30N 51°29' E 002°13'714.7
2019-Jul-15 02:01N 51°22' E 002°08'917.7
2019-Jul-15 01:30N 51°13' E 002°06'1019.7
2019-Jul-15 01:01N 51°09' E 001°52'1019.7
2019-Jul-15 00:30N 51°03' E 001°40'1020.7
2019-Jul-15 00:00N 50°54' E 001°29'1020.5
2019-Jul-14 23:31N 50°45' E 001°25'1019.5
2019-Jul-14 22:59N 50°38' E 001°13'1319.0
2019-Jul-14 22:19N 50°32' E 000°55'1019.1
2019-Jul-14 21:47N 50°29' E 000°40'1819.4
2019-Jul-14 20:51N 50°23' E 000°13'53106.1
2019-Jul-14 20:21N 50°44' W 001°04'41119.5
2019-Jul-14 20:00N 50°24' W 000°09'1020.2
2019-Jul-14 19:30N 50°28' W 000°24'1020.7
2019-Jul-14 19:00N 50°32' W 000°38'1020.4
2019-Jul-14 18:31N 50°38' W 000°51'713.6
2019-Jul-14 18:00N 50°43' W 000°59'918.7
2019-Jul-14 17:30N 50°46' W 001°13'5 9.9
2019-Jul-14 17:00N 50°49' W 001°18'5 9.9
2019-Jul-14 16:31N 50°53' W 001°24'2 4.3
2019-Jul-14 16:00N 50°54' W 001°26'0 0.4
2019-Jul-14 15:30N 50°54' W 001°26'0 0.0
2019-Jul-14 15:00N 50°54' W 001°26'0 0.0
2019-Jul-14 14:30N 50°54' W 001°26'0 0.0
2019-Jul-14 13:54N 50°54' W 001°26'0 0.0
2019-Jul-14 13:27N 50°54' W 001°26'0 0.0
2019-Jul-14 12:57N 50°54' W 001°26'0 0.0
2019-Jul-14 12:21N 50°54' W 001°26'0 0.0
2019-Jul-14 11:54N 50°54' W 001°26'0 0.0
2019-Jul-14 11:30N 50°54' W 001°26'0 0.0
2019-Jul-14 11:00N 50°54' W 001°26'0 0.0
2019-Jul-14 10:30N 50°54' W 001°26'0 0.0
2019-Jul-14 09:54N 50°54' W 001°26'0 0.0
2019-Jul-14 09:27N 50°54' W 001°26'0 0.0
2019-Jul-14 08:54N 50°54' W 001°26'0 0.0
2019-Jul-14 08:27N 50°54' W 001°26'0 0.0
2019-Jul-14 07:54N 50°54' W 001°26'0 0.0
2019-Jul-14 07:09N 50°54' W 001°26'0 0.0
2019-Jul-14 07:00N 50°54' W 001°26'0 0.0
2019-Jul-14 06:27N 50°54' W 001°26'0 0.0
2019-Jul-14 05:54N 50°54' W 001°26'0 0.0
2019-Jul-14 05:27N 50°54' W 001°26'0 0.2
2019-Jul-14 05:00N 50°54' W 001°26'3 6.3
2019-Jul-14 04:31N 50°52' W 001°22'4 8.6
2019-Jul-14 04:00N 50°49' W 001°18'4 7.9
2019-Jul-14 03:31N 50°46' W 001°14'714.4
2019-Jul-14 03:00N 50°44' W 001°03'611.3
2019-Jul-14 02:30N 50°39' W 000°58'511.0
2019-Jul-14 02:00N 50°33' W 000°59'612.2
2019-Jul-14 01:30N 50°30' W 001°07'612.8
2019-Jul-14 01:00N 50°28' W 001°17'612.2
2019-Jul-14 00:30N 50°26' W 001°26'1811.3
2019-Jul-13 22:56N 50°20' W 001°52'510.7
2019-Jul-13 22:26N 50°19' W 002°00'910.7
2019-Jul-13 21:35N 50°17' W 002°14'311.5
2019-Jul-13 21:22N 50°17' W 002°18'511.9
2019-Jul-13 20:58N 50°16' W 002°26'812.4
2019-Jul-13 20:19N 50°14' W 002°38'412.7
2019-Jul-13 20:00N 50°14' W 002°44'613.0
2019-Jul-13 19:30N 50°12' W 002°54'612.9
2019-Jul-13 19:00N 50°09' W 003°03'612.9
2019-Jul-13 18:30N 50°05' W 003°11'612.9
2019-Jul-13 18:00N 50°01' W 003°19'713.1
2019-Jul-13 17:30N 49°58' W 003°27'713.3
2019-Jul-13 17:00N 49°57' W 003°37'713.9
2019-Jul-13 16:30N 49°56' W 003°48'713.8
2019-Jul-13 16:00N 49°55' W 003°59'713.9
2019-Jul-13 15:30N 49°54' W 004°09'713.9
2019-Jul-13 15:00N 49°53' W 004°20'713.8
2019-Jul-13 14:30N 49°52' W 004°31'713.7
2019-Jul-13 13:59N 49°51' W 004°42'1713.1
2019-Jul-13 12:42N 49°48' W 005°08'313.2
2019-Jul-13 12:28N 49°48' W 005°12'9910.7
2019-Jul-13 03:15N 51°21' W 006°02'413.6
2019-Jul-13 02:59N 51°25' W 006°01'3914.2
2019-Jul-13 00:13N 52°03' W 005°45'515.8
2019-Jul-12 23:56N 52°07' W 005°42'715.8
2019-Jul-12 23:30N 52°14' W 005°38'816.0
2019-Jul-12 23:00N 52°21' W 005°33'2415.7
2019-Jul-12 21:29N 52°43' W 005°19'1015.0
2019-Jul-12 20:50N 52°53' W 005°15'614.3
2019-Jul-12 20:26N 52°59' W 005°14'1513.3
2019-Jul-12 19:19N 53°13' W 005°13'5813.0
2019-Jul-12 14:52N 54°11' W 005°12'514.9
2019-Jul-12 14:30N 54°16' W 005°12'815.1
2019-Jul-12 14:01N 54°24' W 005°12'714.8
2019-Jul-12 13:30N 54°31' W 005°14'714.8
2019-Jul-12 13:00N 54°39' W 005°17'713.2
2019-Jul-12 12:30N 54°45' W 005°21'612.7
2019-Jul-12 12:00N 54°50' W 005°26'1313.1
2019-Jul-12 11:00N 55°00' W 005°42'2411.2 300 / 181017.0 2.2 14.013.113.0
2019-Jul-12 08:51N 55°20' W 006°05'412.7
2019-Jul-12 08:30N 55°22' W 006°12'612.6
2019-Jul-12 08:00N 55°24' W 006°23'713.4
2019-Jul-12 07:31N 55°29' W 006°31'714.2
2019-Jul-12 07:00N 55°34' W 006°39'714.5
2019-Jul-12 06:30N 55°40' W 006°48'714.9
2019-Jul-12 06:00N 55°45' W 006°55'714.9
2019-Jul-12 05:30N 55°51' W 007°04'  

Dump ship's entire track history